Pagrindinis puslapis
METAR-TAF:

METAR-TAF

Oro uostai :

Damaskas, Sirija

platuma: 33-25N, ilguma: 036-31E, Aukštis: 608 m

Dabartinis oras

Ataskaita buvo paskelbta 41 minutes, ne 03:00 UTC
Vėjas 10 kt iš Pietvakarių
Temperatūra 11°C
Drėgmė 94%
Slėgis 1013 hPa
Matomumas: 8000 m

METAR: OSDI 190300Z 22010KT 8000 11/10 Q1013

Laikas: 06:41 (03:41 UTC)

Prognozė

Ataskaita buvo paskelbta 5 valandos ir 41 minutes, ne 22:00 UTC
Prognozė galioja nuo 19 metu 00 UTC su 20 metu 06 UTC
Vėjas 15 kt iš Pietvakarių
Matomumas: 8000 m
Mažai debesys ne aukštis 3000 ft
Laikinai
nuo 19 metu 00 UTC su 19 metu 18 UTC
Vėjas 15 kt iš Pietvakarių su gūsio iki 25 kt
Matomumas: 8000 m
Mažai debesys ne aukštis 3000 ft

TAF: OSDI 182200Z 1900/2006 22015KT 8000 FEW030 TEMPO 1900/1918 22015G25KT 8000 FEW030

Orai ataskaitas ir orų prognozės (METAR, TAF).

turimą stotys yra geltonos ir raudonos taškus žemėlapyje.

Perkelti pele per norėdami pamatyti stoties vardą.

Tada spustelėkite, norėdami matyti oro stebėjimo ir prognozės.

Norėdami pakeisti žemėlapį: spustelėkite ant žalios mygtukų su juodo kryžiaus žemyn,; žalią mygtuką su brūkšneliu, jei norite nutolinti; arba žalių rodyklių gretimoms žemėlapius.


METAR-TAF: